createdAt,value
2018-03-31T00:01:29.831Z,12.73
2018-03-31T00:03:56.970Z,11.77
2018-03-31T00:06:24.093Z,17.50
2018-03-31T00:08:51.298Z,11.60
2018-03-31T00:11:19.184Z,19.13
2018-03-31T00:13:46.305Z,16.27
2018-03-31T00:16:13.435Z,13.70
2018-03-31T00:18:40.537Z,16.07
2018-03-31T00:21:07.612Z,14.77
2018-03-31T00:23:34.751Z,13.63
2018-03-31T00:26:01.836Z,14.27
2018-03-31T00:28:28.966Z,12.83
2018-03-31T00:30:56.054Z,12.47
2018-03-31T00:33:23.152Z,14.87
2018-03-31T00:35:50.323Z,13.33
2018-03-31T00:38:17.442Z,14.37
2018-03-31T00:40:44.586Z,15.13
2018-03-31T00:43:11.857Z,16.00
2018-03-31T00:45:38.966Z,14.97
2018-03-31T00:48:06.196Z,15.20
2018-03-31T00:50:33.279Z,13.87
2018-03-31T00:53:01.155Z,17.23
2018-03-31T00:55:28.381Z,15.90
2018-03-31T00:57:56.324Z,13.47
2018-03-31T01:00:23.415Z,15.03
2018-03-31T01:02:50.504Z,15.00
2018-03-31T01:05:17.630Z,14.67
2018-03-31T01:07:44.827Z,13.60
2018-03-31T01:10:11.921Z,14.23
2018-03-31T01:12:39.803Z,14.43
2018-03-31T01:15:06.893Z,12.63
2018-03-31T01:17:34.198Z,14.37
2018-03-31T01:20:01.282Z,11.87
2018-03-31T01:22:28.587Z,14.47
2018-03-31T01:24:56.507Z,13.40
2018-03-31T01:27:24.407Z,13.47
2018-03-31T01:29:51.509Z,13.50
2018-03-31T01:32:18.656Z,12.43
2018-03-31T01:34:45.732Z,15.83
2018-03-31T01:37:12.807Z,15.47
2018-03-31T01:39:40.078Z,18.00
2018-03-31T01:42:07.955Z,15.20
2018-03-31T01:44:35.074Z,14.60
2018-03-31T01:47:02.170Z,17.93
2018-03-31T01:49:29.280Z,14.70
2018-03-31T01:51:56.389Z,16.67
2018-03-31T01:54:23.518Z,17.17
2018-03-31T01:56:50.636Z,17.40
2018-03-31T01:59:18.482Z,17.57
2018-03-31T02:01:45.598Z,17.43
2018-03-31T02:04:12.826Z,16.43
2018-03-31T02:06:39.962Z,16.63
2018-03-31T02:09:07.800Z,18.70
2018-03-31T02:11:34.999Z,17.27
2018-03-31T02:14:02.110Z,17.53
2018-03-31T02:16:29.379Z,19.50
2018-03-31T02:18:56.458Z,18.23
2018-03-31T02:21:23.568Z,21.27
2018-03-31T02:23:50.728Z,20.27
2018-03-31T02:26:18.575Z,21.07
2018-03-31T02:28:45.659Z,19.03
2018-03-31T02:31:13.535Z,21.97
2018-03-31T02:33:40.673Z,20.87
2018-03-31T02:36:07.795Z,22.93
2018-03-31T02:38:34.914Z,20.83
2018-03-31T02:41:02.009Z,20.63
2018-03-31T02:43:29.890Z,20.93
2018-03-31T02:45:57.730Z,23.23
2018-03-31T02:48:24.852Z,23.37
2018-03-31T02:50:51.976Z,22.60
2018-03-31T02:53:19.135Z,19.83
2018-03-31T02:55:46.267Z,22.43
2018-03-31T02:58:13.342Z,21.50
2018-03-31T03:00:40.472Z,21.27
2018-03-31T03:03:07.577Z,20.23
2018-03-31T03:05:34.697Z,22.37
2018-03-31T03:08:01.873Z,19.33
2018-03-31T03:10:28.947Z,24.53
2018-03-31T03:12:56.063Z,22.20
2018-03-31T03:15:23.928Z,22.77
2018-03-31T03:17:51.065Z,21.27
2018-03-31T03:20:18.203Z,23.87
2018-03-31T03:22:45.283Z,23.27
2018-03-31T03:25:12.454Z,22.33
2018-03-31T03:27:39.534Z,23.33
2018-03-31T03:30:06.636Z,20.60
2018-03-31T03:32:33.763Z,19.07
2018-03-31T03:35:00.842Z,22.73
2018-03-31T03:37:28.035Z,19.10
2018-03-31T03:39:55.159Z,20.13
2018-03-31T03:42:23.018Z,23.33
2018-03-31T03:44:50.174Z,22.70
2018-03-31T03:47:17.342Z,19.70
2018-03-31T03:49:44.459Z,20.90
2018-03-31T03:52:11.552Z,21.17
2018-03-31T03:54:38.669Z,19.73
2018-03-31T03:57:05.810Z,18.07
2018-03-31T03:59:32.900Z,19.63
2018-03-31T04:02:00.759Z,20.00
2018-03-31T04:04:28.835Z,18.73
2018-03-31T04:06:56.796Z,21.47
2018-03-31T04:09:24.047Z,18.23
2018-03-31T04:11:51.895Z,19.83
2018-03-31T04:14:19.013Z,17.00
2018-03-31T04:16:46.146Z,20.30
2018-03-31T04:19:13.344Z,20.60
2018-03-31T04:21:40.466Z,19.07
2018-03-31T04:24:07.661Z,18.40
2018-03-31T04:26:35.606Z,22.07
2018-03-31T04:29:02.759Z,18.50
2018-03-31T04:31:29.852Z,17.53
2018-03-31T04:33:56.979Z,20.83
2018-03-31T04:36:24.198Z,20.27
2018-03-31T04:38:51.316Z,18.33
2018-03-31T04:41:18.543Z,17.87
2018-03-31T04:43:46.408Z,20.47
2018-03-31T04:46:14.250Z,19.20
2018-03-31T04:48:41.374Z,22.57
2018-03-31T04:51:08.476Z,18.67
2018-03-31T04:53:35.603Z,22.53
2018-03-31T04:56:02.787Z,21.13
2018-03-31T04:58:29.910Z,19.90
2018-03-31T05:00:56.998Z,21.30
2018-03-31T05:03:24.123Z,20.63
2018-03-31T05:05:52.039Z,23.30
2018-03-31T05:08:19.361Z,21.33
2018-03-31T05:10:47.252Z,19.77
2018-03-31T05:13:14.336Z,20.37
2018-03-31T05:15:41.416Z,24.60
2018-03-31T05:18:09.313Z,24.10
2018-03-31T05:20:36.408Z,24.13
2018-03-31T05:23:03.658Z,23.93
2018-03-31T05:25:30.966Z,22.30
2018-03-31T05:27:58.158Z,23.60
2018-03-31T05:30:25.278Z,23.53
2018-03-31T05:32:52.544Z,22.67
2018-03-31T05:35:19.676Z,25.40
2018-03-31T05:37:46.783Z,23.80
2018-03-31T05:40:13.904Z,24.53
2018-03-31T05:42:41.022Z,23.40
2018-03-31T05:45:08.154Z,25.97
2018-03-31T05:47:35.996Z,23.33
2018-03-31T05:50:03.082Z,24.93
2018-03-31T05:52:30.231Z,25.50
2018-03-31T05:54:57.324Z,22.83
2018-03-31T05:57:24.567Z,24.03
2018-03-31T05:59:51.688Z,25.43
2018-03-31T06:02:18.778Z,26.00
2018-03-31T06:04:45.900Z,24.33
2018-03-31T06:07:12.984Z,24.53
2018-03-31T06:09:40.186Z,27.53
2018-03-31T06:12:07.314Z,26.73
2018-03-31T06:14:34.446Z,24.43
2018-03-31T06:17:01.544Z,23.37
2018-03-31T06:19:28.672Z,23.87
2018-03-31T06:21:55.809Z,29.00
2018-03-31T06:24:22.923Z,27.90
2018-03-31T06:26:50.008Z,25.80
2018-03-31T06:29:17.142Z,26.93
2018-03-31T06:31:44.291Z,25.13
2018-03-31T06:34:11.369Z,26.13
2018-03-31T06:36:38.486Z,27.27
2018-03-31T06:39:05.568Z,27.53
2018-03-31T06:41:32.688Z,26.83
2018-03-31T06:43:59.815Z,28.77
2018-03-31T06:46:26.975Z,29.37
2018-03-31T06:48:54.069Z,28.13
2018-03-31T06:51:21.963Z,27.83
2018-03-31T06:53:49.038Z,29.57
2018-03-31T06:56:16.158Z,30.53
2018-03-31T06:58:43.234Z,31.30
2018-03-31T07:01:10.355Z,28.03
2018-03-31T07:03:37.489Z,30.10
2018-03-31T07:06:05.381Z,33.37
2018-03-31T07:08:32.530Z,30.83
2018-03-31T07:10:59.654Z,29.20
2018-03-31T07:13:27.551Z,33.90
2018-03-31T07:15:54.661Z,30.03
2018-03-31T07:18:21.773Z,31.13
2018-03-31T07:20:48.959Z,33.40
2018-03-31T07:23:16.043Z,31.43
2018-03-31T07:25:43.118Z,32.30
2018-03-31T07:28:10.372Z,32.43
2018-03-31T07:30:37.443Z,32.47
2018-03-31T07:33:04.656Z,30.10
2018-03-31T07:35:31.846Z,33.13
2018-03-31T07:37:58.964Z,30.50
2018-03-31T07:40:26.046Z,29.70
2018-03-31T07:42:53.167Z,30.73
2018-03-31T07:45:20.251Z,32.57
2018-03-31T07:47:47.386Z,31.83
2018-03-31T07:50:14.500Z,32.27
2018-03-31T07:52:41.650Z,28.57
2018-03-31T07:55:08.725Z,30.47
2018-03-31T07:57:35.825Z,31.50
2018-03-31T08:00:03.786Z,31.37
2018-03-31T08:02:30.950Z,32.13
2018-03-31T08:04:58.830Z,33.43
2018-03-31T08:07:25.966Z,30.00
2018-03-31T08:09:53.902Z,32.53
2018-03-31T08:12:21.069Z,30.63
2018-03-31T08:14:48.239Z,32.63
2018-03-31T08:17:16.214Z,31.00
2018-03-31T08:19:44.107Z,35.80
2018-03-31T08:22:11.184Z,30.87
2018-03-31T08:24:39.274Z,30.30
2018-03-31T08:27:06.332Z,28.13
2018-03-31T08:29:33.450Z,30.13
2018-03-31T08:32:00.663Z,31.10
2018-03-31T08:34:27.882Z,32.03
2018-03-31T08:36:57.004Z,29.73
2018-03-31T08:39:24.214Z,38.07
2018-03-31T08:41:51.330Z,37.03
2018-03-31T08:44:18.412Z,38.37
2018-03-31T08:46:45.600Z,34.07
2018-03-31T08:49:13.484Z,31.23
2018-03-31T08:51:40.563Z,29.20
2018-03-31T08:54:07.709Z,30.70
2018-03-31T08:56:34.888Z,29.07
2018-03-31T08:59:02.010Z,27.20
2018-03-31T09:01:29.220Z,25.20
2018-03-31T09:03:56.362Z,30.13
2018-03-31T09:06:23.615Z,27.57
2018-03-31T09:08:50.695Z,30.73
2018-03-31T09:11:17.832Z,24.83
2018-03-31T09:13:44.952Z,31.70
2018-03-31T09:16:12.040Z,28.53
2018-03-31T09:18:39.176Z,29.83
2018-03-31T09:21:07.066Z,28.60
2018-03-31T09:23:34.199Z,30.60
2018-03-31T09:26:01.414Z,31.37
2018-03-31T09:28:28.633Z,30.17
2018-03-31T09:30:55.905Z,29.40
2018-03-31T09:33:22.990Z,29.57
2018-03-31T09:35:50.834Z,29.53
2018-03-31T09:38:17.956Z,33.67
2018-03-31T09:40:45.108Z,38.53
2018-03-31T09:43:12.227Z,37.67
2018-03-31T09:45:39.306Z,32.67
2018-03-31T09:48:06.484Z,31.67
2018-03-31T09:50:33.612Z,44.70
2018-03-31T09:53:00.709Z,44.67
2018-03-31T09:55:27.792Z,43.13
2018-03-31T09:57:55.039Z,46.57
2018-03-31T10:00:27.730Z,39.20
2018-03-31T10:02:54.938Z,35.60
2018-03-31T10:05:22.786Z,36.43
2018-03-31T10:07:49.951Z,33.20
2018-03-31T10:10:17.036Z,30.23
2018-03-31T10:12:44.186Z,32.60
2018-03-31T10:15:11.264Z,28.53
2018-03-31T10:17:38.386Z,32.47
2018-03-31T10:20:05.496Z,31.13
2018-03-31T10:22:32.654Z,33.43
2018-03-31T10:24:59.770Z,32.87
2018-03-31T10:27:26.877Z,29.60
2018-03-31T10:29:53.976Z,28.70
2018-03-31T10:32:21.090Z,30.13
2018-03-31T10:34:48.169Z,31.67
2018-03-31T10:37:15.297Z,29.93
2018-03-31T10:39:42.434Z,33.00
2018-03-31T10:42:09.536Z,32.07
2018-03-31T10:44:36.628Z,31.77
2018-03-31T10:47:03.742Z,30.00
2018-03-31T10:49:30.831Z,31.63
2018-03-31T10:51:57.967Z,31.10
2018-03-31T10:54:25.811Z,33.33
2018-03-31T10:56:52.900Z,29.97
2018-03-31T10:59:20.019Z,30.27
2018-03-31T11:01:48.038Z,31.10
2018-03-31T11:04:15.146Z,30.20
2018-03-31T11:06:43.039Z,33.43
2018-03-31T11:09:10.126Z,35.13
2018-03-31T11:11:37.204Z,36.97
2018-03-31T11:14:04.318Z,40.00
2018-03-31T11:16:31.452Z,39.10
2018-03-31T11:18:58.536Z,38.13
2018-03-31T11:21:25.619Z,38.83
2018-03-31T11:23:53.508Z,35.63
2018-03-31T11:26:20.599Z,39.17
2018-03-31T11:28:47.720Z,35.30
2018-03-31T11:31:14.847Z,34.80
2018-03-31T11:33:41.924Z,37.43
2018-03-31T11:36:09.042Z,37.43
2018-03-31T11:38:36.120Z,42.60
2018-03-31T11:41:03.242Z,38.17
2018-03-31T11:43:30.324Z,36.13
2018-03-31T11:45:57.402Z,39.17
2018-03-31T11:48:24.516Z,37.30
2018-03-31T11:50:51.609Z,37.70
2018-03-31T11:53:18.727Z,37.43
2018-03-31T11:55:45.808Z,36.87
2018-03-31T11:58:12.934Z,38.47
2018-03-31T12:00:40.074Z,36.33
2018-03-31T12:03:07.211Z,37.87
2018-03-31T12:05:34.290Z,42.40
2018-03-31T12:08:01.375Z,38.17
2018-03-31T12:10:29.262Z,37.47
2018-03-31T12:12:56.383Z,34.63
2018-03-31T12:15:24.266Z,34.50
2018-03-31T12:17:52.110Z,32.93
2018-03-31T12:20:19.235Z,34.03
2018-03-31T12:22:46.355Z,32.80
2018-03-31T12:25:13.440Z,39.17
2018-03-31T12:27:40.549Z,37.03
2018-03-31T12:30:07.631Z,44.73
2018-03-31T12:32:34.873Z,45.83
2018-03-31T12:35:01.959Z,51.77
2018-03-31T12:37:29.109Z,55.50
2018-03-31T12:39:56.182Z,55.80
2018-03-31T12:42:24.081Z,62.20
2018-03-31T12:44:51.203Z,65.13
2018-03-31T12:47:18.368Z,62.90
2018-03-31T12:49:46.208Z,59.40
2018-03-31T12:52:13.401Z,59.10
2018-03-31T12:54:40.431Z,59.80
2018-03-31T12:57:07.515Z,59.77
2018-03-31T12:59:34.649Z,59.83
2018-03-31T13:02:01.735Z,62.97
2018-03-31T13:04:28.873Z,63.93
2018-03-31T13:06:56.005Z,57.97
2018-03-31T13:09:23.134Z,60.50
2018-03-31T13:11:50.277Z,62.23
2018-03-31T13:14:17.390Z,59.30
2018-03-31T13:16:44.531Z,64.80
2018-03-31T13:19:11.621Z,61.97
2018-03-31T13:21:39.506Z,56.20
2018-03-31T13:24:06.619Z,57.70
2018-03-31T13:26:33.750Z,56.20
2018-03-31T13:29:00.873Z,54.40
2018-03-31T13:31:28.051Z,87.57
2018-03-31T13:33:55.136Z,89.83
2018-03-31T13:36:22.977Z,70.47
2018-03-31T13:38:50.129Z,62.77
2018-03-31T13:41:18.746Z,62.10
2018-03-31T13:43:45.963Z,65.53
2018-03-31T13:46:13.094Z,70.80
2018-03-31T13:48:40.200Z,71.03
2018-03-31T13:51:07.318Z,71.97
2018-03-31T13:53:34.443Z,74.60
2018-03-31T13:56:01.591Z,76.73
2018-03-31T13:58:28.857Z,75.60
2018-03-31T14:00:56.011Z,73.67
2018-03-31T14:03:23.165Z,78.43
2018-03-31T14:05:50.314Z,75.93
2018-03-31T14:08:17.400Z,78.73
2018-03-31T14:10:45.243Z,77.40
2018-03-31T14:13:12.366Z,76.27
2018-03-31T14:15:39.459Z,72.97
2018-03-31T14:18:06.600Z,77.20
2018-03-31T14:20:34.449Z,75.33
2018-03-31T14:23:01.572Z,72.80
2018-03-31T14:25:28.692Z,77.27
2018-03-31T14:27:55.809Z,76.57
2018-03-31T14:30:22.884Z,79.77
2018-03-31T14:32:50.059Z,72.47
2018-03-31T14:35:17.166Z,72.80
2018-03-31T14:37:44.244Z,68.97
2018-03-31T14:40:11.404Z,76.90
2018-03-31T14:42:38.528Z,72.40
2018-03-31T14:45:06.359Z,74.67
2018-03-31T14:47:35.713Z,67.20
2018-03-31T14:50:02.998Z,69.17
2018-03-31T14:52:30.080Z,70.07
2018-03-31T14:54:57.209Z,69.80
2018-03-31T14:57:24.318Z,71.97
2018-03-31T14:59:51.466Z,68.00
2018-03-31T15:02:18.583Z,68.43
2018-03-31T15:04:45.724Z,67.17
2018-03-31T15:07:12.802Z,83.43
2018-03-31T15:09:40.706Z,75.30
2018-03-31T15:12:07.921Z,80.03
2018-03-31T15:14:35.798Z,76.93
2018-03-31T15:17:02.976Z,73.87
2018-03-31T15:19:30.122Z,79.03
2018-03-31T15:21:57.251Z,91.53
2018-03-31T15:24:24.532Z,83.87
2018-03-31T15:26:51.727Z,83.50
2018-03-31T15:29:19.593Z,78.40
2018-03-31T15:31:46.710Z,74.07
2018-03-31T15:34:15.349Z,64.30
2018-03-31T15:36:43.245Z,63.13
2018-03-31T15:39:10.382Z,68.57
2018-03-31T15:41:37.503Z,68.83
2018-03-31T15:44:04.675Z,78.33
2018-03-31T15:46:31.788Z,78.43
2018-03-31T15:48:58.903Z,80.17
2018-03-31T15:51:25.991Z,79.63
2018-03-31T15:53:53.116Z,80.50
2018-03-31T15:56:20.194Z,80.43
2018-03-31T15:58:47.319Z,71.90
2018-03-31T16:01:14.390Z,69.10
2018-03-31T16:03:41.523Z,63.90
2018-03-31T16:06:08.624Z,63.47
2018-03-31T16:08:36.475Z,67.30
2018-03-31T16:11:03.608Z,65.97
2018-03-31T16:13:30.715Z,55.67
2018-03-31T16:15:57.804Z,56.63
2018-03-31T16:18:24.926Z,55.50
2018-03-31T16:20:52.045Z,56.83
2018-03-31T16:23:19.113Z,60.30
2018-03-31T16:25:46.573Z,61.73
2018-03-31T16:28:13.676Z,63.07
2018-03-31T16:30:40.827Z,62.30
2018-03-31T16:33:07.907Z,64.87
2018-03-31T16:35:34.995Z,71.40
2018-03-31T16:38:02.122Z,72.83
2018-03-31T16:40:29.243Z,86.57
2018-03-31T16:42:57.123Z,88.20
2018-03-31T16:45:24.230Z,95.77
2018-03-31T16:47:51.462Z,89.70
2018-03-31T16:50:18.560Z,86.07
2018-03-31T16:52:46.429Z,82.83
2018-03-31T16:55:13.626Z,87.07
2018-03-31T16:57:40.707Z,112.63
2018-03-31T17:00:07.826Z,99.63
2018-03-31T17:02:34.967Z,72.73
2018-03-31T17:05:02.055Z,60.30
2018-03-31T17:07:29.141Z,65.80
2018-03-31T17:09:56.253Z,70.30
2018-03-31T17:12:23.395Z,70.87
2018-03-31T17:14:50.600Z,74.87
2018-03-31T17:17:17.693Z,131.13
2018-03-31T17:19:44.866Z,125.63
2018-03-31T17:22:12.053Z,87.93
2018-03-31T17:24:39.126Z,75.00
2018-03-31T17:27:06.258Z,79.40
2018-03-31T17:29:33.396Z,73.80
2018-03-31T17:32:00.535Z,77.07
2018-03-31T17:34:27.694Z,78.70
2018-03-31T17:36:54.821Z,98.27
2018-03-31T17:39:21.964Z,109.07
2018-03-31T17:41:49.853Z,90.00
2018-03-31T17:44:17.735Z,63.10
2018-03-31T17:46:44.850Z,64.33
2018-03-31T17:49:12.105Z,63.67
2018-03-31T17:51:39.242Z,71.87
2018-03-31T17:54:06.332Z,69.50
2018-03-31T17:56:33.430Z,77.97
2018-03-31T17:59:00.590Z,81.20
2018-03-31T18:01:27.689Z,94.83
2018-03-31T18:03:54.853Z,100.73
2018-03-31T18:06:22.036Z,105.17
2018-03-31T18:08:49.317Z,100.80
2018-03-31T18:11:16.393Z,111.57
2018-03-31T18:13:43.524Z,107.60
2018-03-31T18:16:11.412Z,99.50
2018-03-31T18:18:38.494Z,101.37
2018-03-31T18:21:05.617Z,107.20
2018-03-31T18:23:32.782Z,120.40
2018-03-31T18:26:00.006Z,132.33
2018-03-31T18:28:27.121Z,139.77
2018-03-31T18:30:54.366Z,133.03
2018-03-31T18:33:21.449Z,138.17
2018-03-31T18:35:48.593Z,146.10
2018-03-31T18:38:16.444Z,126.80
2018-03-31T18:40:43.591Z,115.73
2018-03-31T18:43:10.712Z,111.13
2018-03-31T18:45:38.020Z,99.80
2018-03-31T18:48:05.872Z,120.93
2018-03-31T18:50:32.984Z,142.43
2018-03-31T18:53:00.089Z,138.23
2018-03-31T18:55:28.002Z,143.17
2018-03-31T18:57:55.126Z,134.90
2018-03-31T19:00:22.212Z,115.23
2018-03-31T19:02:49.440Z,116.50
2018-03-31T19:05:16.532Z,118.03
2018-03-31T19:07:43.636Z,115.07
2018-03-31T19:10:10.766Z,111.23
2018-03-31T19:12:37.887Z,112.27
2018-03-31T19:15:04.965Z,120.00
2018-03-31T19:17:32.131Z,116.00
2018-03-31T19:19:59.247Z,113.10
2018-03-31T19:22:26.357Z,135.60
2018-03-31T19:24:59.088Z,140.47
2018-03-31T19:27:27.105Z,134.13
2018-03-31T19:29:54.173Z,147.20
2018-03-31T19:32:21.297Z,135.33
2018-03-31T19:34:48.464Z,155.17
2018-03-31T19:37:15.533Z,154.73
2018-03-31T19:39:48.219Z,155.73
2018-03-31T19:42:15.418Z,164.87
2018-03-31T19:44:42.516Z,174.00
2018-03-31T19:47:09.635Z,177.03
2018-03-31T19:49:36.837Z,205.33
2018-03-31T19:52:04.804Z,189.10
2018-03-31T19:54:31.911Z,201.20
2018-03-31T19:56:59.041Z,203.10
2018-03-31T19:59:26.187Z,214.97
2018-03-31T20:01:53.315Z,207.07
2018-03-31T20:04:20.404Z,183.30
2018-03-31T20:06:47.536Z,185.67
2018-03-31T20:09:14.620Z,179.60
2018-03-31T20:11:41.706Z,179.93
2018-03-31T20:14:09.629Z,174.67
2018-03-31T20:16:36.714Z,178.13
2018-03-31T20:19:04.609Z,167.47
2018-03-31T20:21:31.777Z,159.77
2018-03-31T20:23:58.858Z,144.30
2018-03-31T20:26:26.021Z,148.87
2018-03-31T20:28:53.139Z,133.10
2018-03-31T20:31:20.285Z,123.57
2018-03-31T20:33:47.393Z,117.30
2018-03-31T20:36:15.279Z,115.73
2018-03-31T20:38:42.362Z,111.10
2018-03-31T20:41:09.449Z,111.00
2018-03-31T20:43:37.357Z,116.83
2018-03-31T20:46:04.433Z,110.90
2018-03-31T20:48:31.556Z,101.53
2018-03-31T20:50:58.646Z,106.57
2018-03-31T20:53:25.770Z,105.03
2018-03-31T20:55:52.856Z,103.47
2018-03-31T20:58:19.974Z,111.10
2018-03-31T21:00:47.053Z,102.80
2018-03-31T21:03:14.198Z,102.90
2018-03-31T21:05:41.287Z,112.07
2018-03-31T21:08:08.410Z,110.10
2018-03-31T21:10:36.271Z,108.40
2018-03-31T21:13:03.409Z,107.93
2018-03-31T21:15:30.498Z,110.00
2018-03-31T21:17:58.444Z,119.67
2018-03-31T21:20:25.537Z,112.03
2018-03-31T21:22:52.667Z,110.20
2018-03-31T21:25:19.749Z,111.83
2018-03-31T21:27:46.875Z,105.30
2018-03-31T21:30:13.955Z,102.53
2018-03-31T21:32:41.119Z,102.57
2018-03-31T21:35:08.209Z,111.77
2018-03-31T21:37:35.760Z,111.10
2018-03-31T21:40:03.619Z,109.97
2018-03-31T21:42:30.713Z,110.00
2018-03-31T21:44:57.831Z,108.87
2018-03-31T21:47:25.741Z,99.20
2018-03-31T21:49:52.853Z,99.27
2018-03-31T21:52:19.968Z,93.67
2018-03-31T21:54:47.298Z,111.63
2018-03-31T21:57:14.767Z,101.50
2018-03-31T21:59:42.247Z,105.63
2018-03-31T22:02:11.549Z,98.87
2018-03-31T22:04:38.856Z,97.03
2018-03-31T22:07:05.938Z,102.67
2018-03-31T22:09:33.169Z,102.30
2018-03-31T22:12:00.407Z,103.70
2018-03-31T22:14:33.257Z,110.47
2018-03-31T22:17:00.441Z,115.23
2018-03-31T22:19:27.772Z,124.50
2018-03-31T22:21:55.415Z,131.37
2018-03-31T22:24:22.520Z,133.57
2018-03-31T22:26:49.650Z,152.37
2018-03-31T22:29:16.730Z,151.43
2018-03-31T22:31:44.982Z,143.40
2018-03-31T22:34:12.087Z,125.33
2018-03-31T22:36:39.226Z,110.33
2018-03-31T22:39:07.074Z,113.77
2018-03-31T22:41:34.347Z,110.53
2018-03-31T22:44:01.565Z,105.73
2018-03-31T22:46:28.673Z,108.23
2018-03-31T22:48:55.998Z,121.83
2018-03-31T22:51:23.073Z,113.87
2018-03-31T22:53:50.220Z,114.60
2018-03-31T22:56:17.765Z,105.80
2018-03-31T22:58:45.712Z,117.37
2018-03-31T23:01:12.792Z,111.87
2018-03-31T23:03:40.023Z,112.97
2018-03-31T23:06:07.242Z,128.30
2018-03-31T23:08:34.359Z,139.97
2018-03-31T23:11:01.442Z,143.07
2018-03-31T23:13:28.705Z,157.37
2018-03-31T23:15:55.862Z,159.93
2018-03-31T23:18:23.439Z,151.53
2018-03-31T23:20:51.884Z,155.33
2018-03-31T23:23:19.178Z,166.70
2018-03-31T23:25:46.278Z,170.57
2018-03-31T23:28:13.396Z,168.17
2018-03-31T23:30:40.474Z,164.37
2018-03-31T23:33:07.617Z,156.87
2018-03-31T23:35:34.703Z,151.13
2018-03-31T23:38:01.792Z,133.07
2018-03-31T23:40:28.932Z,147.43
2018-03-31T23:42:56.104Z,133.77
2018-03-31T23:45:23.211Z,118.87
2018-03-31T23:47:50.330Z,121.33
2018-03-31T23:50:18.224Z,116.13
2018-03-31T23:52:45.358Z,118.37
2018-03-31T23:55:12.440Z,108.57
2018-03-31T23:57:39.607Z,109.87
